Time;durP1;ratioP1;P1;durP2;ratioP2;P2;SDS_P1;SDS_P2;PMS_P1;PMS_P2;Temp;Humidity;BMP_temperature;BMP_pressure;BME280_temperature;BME280_humidity;BME280_pressure;Samples;Min_cycle;Max_cycle;Signal;HPM_P1;HPM_P2
2024/03/29 00:01:37;;;;;;;2.93;1.20;;;9.20;99.90;;;;;;5075114;28;20206;-71
2024/03/29 00:04:02;;;;;;;1.37;0.93;;;9.20;99.90;;;;;;5074409;28;20609;-70
2024/03/29 00:06:28;;;;;;;5.77;1.10;;;9.20;99.90;;;;;;5073955;28;20170;-70
2024/03/29 00:08:54;;;;;;;2.07;1.17;;;9.20;99.90;;;;;;5073725;28;20210;-72
2024/03/29 00:11:19;;;;;;;8.87;1.47;;;9.10;99.90;;;;;;5075343;28;20446;-70
2024/03/29 00:13:45;;;;;;;2.60;0.83;;;9.20;99.90;;;;;;5074644;28;20170;-73
2024/03/29 00:16:11;;;;;;;1.13;0.90;;;9.20;99.90;;;;;;5073579;28;20181;-71
2024/03/29 00:18:37;;;;;;;1.83;1.07;;;9.20;99.90;;;;;;5074231;28;20247;-71
2024/03/29 00:21:03;;;;;;;1.93;0.83;;;9.10;99.90;;;;;;5074568;28;20542;-71
2024/03/29 00:23:28;;;;;;;4.10;0.80;;;9.10;99.90;;;;;;5074824;28;20162;-71
2024/03/29 00:25:58;;;;;;;1.67;0.77;;;9.00;99.90;;;;;;5075042;28;20166;-71
2024/03/29 00:28:23;;;;;;;1.07;0.73;;;9.00;99.90;;;;;;5074811;28;20159;-70
2024/03/29 00:30:49;;;;;;;1.40;0.73;;;9.00;99.90;;;;;;5075308;28;20461;-70
2024/03/29 00:33:14;;;;;;;1.00;0.77;;;9.00;99.90;;;;;;5075019;28;20529;-71
2024/03/29 00:35:40;;;;;;;3.83;0.87;;;9.00;99.90;;;;;;5074787;28;20549;-71
2024/03/29 00:38:05;;;;;;;1.57;0.87;;;9.00;99.90;;;;;;5070633;28;20235;-71
2024/03/29 00:40:31;;;;;;;1.27;0.73;;;9.00;99.90;;;;;;5070284;28;20205;-71
2024/03/29 00:42:56;;;;;;;1.27;1.17;;;9.00;99.90;;;;;;5065221;28;20170;-70
2024/03/29 00:45:22;;;;;;;2.20;0.70;;;9.00;99.90;;;;;;5075783;28;20243;-71
2024/03/29 00:47:47;;;;;;;1.53;0.70;;;8.80;99.90;;;;;;5074260;28;20695;-71
2024/03/29 00:50:13;;;;;;;0.83;0.70;;;8.80;99.90;;;;;;5074600;28;20212;-71
2024/03/29 00:52:38;;;;;;;1.20;0.70;;;8.80;99.90;;;;;;5074361;28;20202;-70
2024/03/29 00:55:05;;;;;;;1.00;0.60;;;8.60;99.90;;;;;;5074451;28;20166;-70
2024/03/29 00:57:30;;;;;;;0.80;0.60;;;8.60;99.90;;;;;;5056096;28;20194;-70
2024/03/29 00:59:56;;;;;;;1.00;0.80;;;8.60;99.90;;;;;;5074214;28;20447;-71
2024/03/29 01:02:23;;;;;;;1.00;0.83;;;8.70;99.90;;;;;;5074096;28;20201;-71
2024/03/29 01:04:49;;;;;;;1.87;1.00;;;8.60;99.90;;;;;;5071418;28;20903;-70
2024/03/29 01:07:16;;;;;;;5.40;0.90;;;8.70;99.90;;;;;;5068680;28;20416;-71
2024/03/29 01:09:43;;;;;;;2.10;0.90;;;8.60;99.90;;;;;;5074034;28;20217;-71
2024/03/29 01:12:09;;;;;;;0.90;0.60;;;8.50;99.90;;;;;;5074155;28;20400;-71
2024/03/29 01:14:34;;;;;;;1.10;0.70;;;8.60;99.90;;;;;;5074103;28;20771;-71
2024/03/29 01:17:00;;;;;;;2.13;0.90;;;8.60;99.90;;;;;;5073698;28;20412;-70
2024/03/29 01:19:26;;;;;;;0.87;0.67;;;8.60;99.90;;;;;;5073617;28;20190;-70
2024/03/29 01:21:51;;;;;;;1.07;0.70;;;8.70;99.90;;;;;;5074056;28;20190;-70
2024/03/29 01:24:18;;;;;;;3.67;1.27;;;8.70;99.90;;;;;;5072786;28;20197;-70
2024/03/29 01:26:44;;;;;;;1.93;0.90;;;8.70;99.90;;;;;;5073656;28;20530;-71
2024/03/29 01:29:10;;;;;;;1.30;0.90;;;8.80;99.90;;;;;;5073841;28;20432;-71
2024/03/29 01:31:36;;;;;;;2.40;0.80;;;8.80;99.90;;;;;;5072571;28;20919;-71
2024/03/29 01:34:02;;;;;;;1.10;0.70;;;8.80;99.90;;;;;;5073658;28;20522;-71
2024/03/29 01:36:29;;;;;;;1.20;0.80;;;8.80;99.90;;;;;;5068258;28;20182;-71
2024/03/29 01:38:56;;;;;;;1.00;0.70;;;8.80;99.90;;;;;;5050665;28;20535;-72
2024/03/29 01:41:26;;;;;;;2.33;1.03;;;8.80;99.90;;;;;;5041510;28;20456;-72
2024/03/29 01:43:54;;;;;;;0.80;0.70;;;8.80;99.90;;;;;;5073736;28;20949;-70
2024/03/29 01:46:22;;;;;;;1.43;0.80;;;8.80;99.90;;;;;;5072206;28;20401;-71
2024/03/29 01:48:50;;;;;;;2.10;0.80;;;8.70;99.90;;;;;;5073221;28;20431;-71
2024/03/29 01:51:16;;;;;;;2.80;0.93;;;8.70;99.90;;;;;;5073369;28;20798;-71
2024/03/29 01:53:43;;;;;;;2.70;1.13;;;8.70;99.90;;;;;;5073396;28;20432;-73
2024/03/29 01:56:09;;;;;;;1.20;0.90;;;8.60;99.90;;;;;;5073118;28;20412;-70
2024/03/29 01:58:35;;;;;;;1.33;1.00;;;8.60;99.90;;;;;;5071854;28;20515;-71
2024/03/29 02:01:01;;;;;;;2.57;0.90;;;8.60;99.90;;;;;;5071646;28;20455;-71
2024/03/29 02:03:27;;;;;;;2.80;1.37;;;8.60;99.90;;;;;;5073055;28;20447;-71
2024/03/29 02:05:53;;;;;;;0.90;0.70;;;8.70;99.90;;;;;;5073133;28;20400;-71
2024/03/29 02:08:19;;;;;;;5.13;1.23;;;8.70;99.90;;;;;;5070642;28;20185;-71
2024/03/29 02:10:47;;;;;;;2.23;0.80;;;8.80;99.90;;;;;;5070217;28;20530;-71
2024/03/29 02:13:12;;;;;;;1.17;1.00;;;8.70;99.90;;;;;;5073599;28;20237;-71
2024/03/29 02:15:42;;;;;;;1.00;0.70;;;8.90;99.90;;;;;;5054802;28;20412;-70
2024/03/29 02:18:08;;;;;;;1.17;0.90;;;8.80;99.90;;;;;;5054184;28;20536;-71
2024/03/29 02:20:34;;;;;;;1.20;0.90;;;8.80;99.90;;;;;;5072539;28;20420;-70
2024/03/29 02:23:13;;;;;;;1.00;0.90;;;8.90;99.90;;;;;;5072634;28;20193;-71
2024/03/29 02:25:39;;;;;;;6.57;1.23;;;9.00;99.90;;;;;;5054911;28;20466;-71
2024/03/29 02:28:05;;;;;;;2.77;1.03;;;9.00;99.90;;;;;;5072531;28;20396;-71
2024/03/29 02:30:30;;;;;;;1.43;0.90;;;9.00;99.90;;;;;;5072858;28;20183;-70
2024/03/29 02:32:57;;;;;;;2.10;1.20;;;9.10;99.90;;;;;;5072272;28;20434;-70
2024/03/29 02:35:23;;;;;;;1.50;0.90;;;9.00;99.90;;;;;;5072324;28;20207;-70
2024/03/29 02:37:48;;;;;;;2.40;0.87;;;9.00;99.90;;;;;;5067279;28;20504;-70
2024/03/29 02:40:14;;;;;;;4.73;1.00;;;9.00;99.90;;;;;;5071831;28;20190;-71
2024/03/29 02:42:39;;;;;;;1.23;1.00;;;8.90;99.90;;;;;;5072163;28;20209;-70
2024/03/29 02:45:05;;;;;;;3.63;1.00;;;9.00;99.90;;;;;;5072155;28;20166;-70
2024/03/29 02:47:30;;;;;;;1.30;0.70;;;9.00;99.90;;;;;;5053910;28;20170;-70
2024/03/29 02:49:56;;;;;;;1.60;0.93;;;9.10;99.90;;;;;;5072149;28;20190;-70
2024/03/29 02:52:21;;;;;;;4.07;1.30;;;9.10;99.90;;;;;;5071903;28;20186;-71
2024/03/29 02:54:47;;;;;;;1.30;0.87;;;9.20;99.90;;;;;;5072026;28;20175;-70
2024/03/29 02:57:13;;;;;;;1.90;1.03;;;9.20;99.90;;;;;;5072011;28;20656;-70
2024/03/29 02:59:42;;;;;;;2.40;0.67;;;9.30;99.90;;;;;;5053943;28;20282;-70
2024/03/29 03:02:08;;;;;;;9.23;1.40;;;9.30;99.90;;;;;;5071647;28;20194;-70
2024/03/29 03:04:33;;;;;;;2.53;0.90;;;9.30;99.90;;;;;;5071961;28;20775;-70
2024/03/29 03:10:56;;;;;;;1.50;0.97;;;9.30;99.90;;;;;;5071632;28;20408;-71
2024/03/29 03:12:29;;;;;;;6.10;1.30;;;9.20;99.90;;;;;;5071560;28;20423;-70
2024/03/29 03:14:55;;;;;;;1.00;0.70;;;9.30;99.90;;;;;;5053919;28;20416;-70
2024/03/29 03:17:21;;;;;;;2.40;0.90;;;9.30;99.90;;;;;;5071546;28;20499;-70
2024/03/29 03:19:47;;;;;;;2.50;1.00;;;9.30;99.90;;;;;;5071722;28;20243;-70
2024/03/29 03:22:12;;;;;;;0.90;0.70;;;9.30;99.90;;;;;;5071022;28;20247;-70
2024/03/29 03:24:38;;;;;;;1.63;0.83;;;9.40;99.90;;;;;;5071599;28;20400;-70
2024/03/29 03:27:03;;;;;;;2.03;0.97;;;9.30;99.90;;;;;;5071168;28;20170;-70
2024/03/29 03:29:29;;;;;;;5.40;1.00;;;9.20;99.90;;;;;;5072332;28;20285;-70
2024/03/29 03:31:54;;;;;;;0.90;0.80;;;9.20;99.90;;;;;;5075717;28;20672;-71
2024/03/29 03:34:20;;;;;;;1.87;1.10;;;9.20;99.90;;;;;;5075933;28;20166;-70
2024/03/29 03:36:45;;;;;;;2.00;0.90;;;9.10;99.90;;;;;;5057669;28;20212;-70
2024/03/29 03:39:11;;;;;;;4.73;0.90;;;9.20;99.90;;;;;;5071084;28;20221;-71
2024/03/29 03:41:36;;;;;;;1.80;1.03;;;9.20;99.90;;;;;;5075568;28;20186;-70
2024/03/29 03:44:02;;;;;;;5.37;1.07;;;9.10;99.90;;;;;;5075759;28;20174;-70
2024/03/29 03:46:28;;;;;;;1.77;1.00;;;9.10;99.90;;;;;;5075525;28;20166;-69
2024/03/29 03:48:53;;;;;;;2.10;0.97;;;9.10;99.90;;;;;;5075466;28;20186;-70
2024/03/29 03:51:19;;;;;;;2.07;1.17;;;9.10;99.90;;;;;;5075390;28;20170;-69
2024/03/29 03:53:44;;;;;;;1.00;0.77;;;9.10;99.90;;;;;;5075612;28;20162;-70
2024/03/29 03:56:10;;;;;;;7.33;1.03;;;9.00;99.90;;;;;;5057294;28;20239;-70
2024/03/29 03:58:35;;;;;;;1.63;1.10;;;9.10;99.90;;;;;;5075162;28;20178;-70
2024/03/29 04:01:04;;;;;;;1.13;0.83;;;9.10;99.90;;;;;;5075260;28;20632;-71
2024/03/29 04:03:30;;;;;;;1.63;0.80;;;9.10;99.90;;;;;;5075151;28;20170;-70
2024/03/29 04:05:55;;;;;;;1.50;1.17;;;9.10;99.90;;;;;;5075222;28;20411;-71
2024/03/29 04:08:21;;;;;;;2.37;0.90;;;9.20;99.90;;;;;;5071759;28;20375;-71
2024/03/29 04:10:46;;;;;;;3.40;0.90;;;9.10;99.90;;;;;;5071598;28;20182;-71
2024/03/29 04:13:12;;;;;;;2.93;1.27;;;9.10;99.90;;;;;;5074666;28;20166;-71
2024/03/29 04:15:37;;;;;;;4.00;1.20;;;9.20;99.90;;;;;;5074891;28;20170;-71
2024/03/29 04:18:03;;;;;;;0.90;0.83;;;9.20;99.90;;;;;;5074576;28;20173;-71
2024/03/29 04:20:29;;;;;;;2.43;0.90;;;9.20;99.90;;;;;;5074918;28;20182;-71
2024/03/29 04:22:54;;;;;;;1.70;0.87;;;9.20;99.90;;;;;;5074850;28;20190;-70
2024/03/29 04:25:20;;;;;;;2.83;1.00;;;9.20;99.90;;;;;;5056867;28;20170;-71
2024/03/29 04:27:45;;;;;;;7.00;1.20;;;9.20;99.90;;;;;;5074477;28;20163;-71
2024/03/29 04:30:11;;;;;;;1.27;0.97;;;9.10;99.90;;;;;;5056785;28;20729;-71
2024/03/29 04:32:36;;;;;;;1.03;0.80;;;9.10;99.90;;;;;;5074479;28;20256;-71
2024/03/29 04:35:02;;;;;;;0.97;0.63;;;9.10;99.90;;;;;;5056713;28;20523;-70
2024/03/29 04:37:28;;;;;;;1.00;0.90;;;9.00;99.90;;;;;;5072340;28;20685;-71
2024/03/29 04:39:53;;;;;;;2.60;1.13;;;9.00;99.90;;;;;;5070604;28;20206;-70
2024/03/29 04:42:19;;;;;;;3.07;1.00;;;9.10;99.90;;;;;;5068394;28;20197;-71
2024/03/29 04:44:45;;;;;;;3.77;1.13;;;9.10;99.90;;;;;;5074281;28;20588;-71
2024/03/29 04:47:11;;;;;;;3.43;0.97;;;9.00;99.90;;;;;;5074100;28;20170;-71
2024/03/29 04:49:36;;;;;;;1.00;0.70;;;9.10;99.90;;;;;;5056592;28;20477;-71
2024/03/29 04:52:06;;;;;;;1.40;0.80;;;9.00;99.90;;;;;;5074131;28;20194;-71
2024/03/29 04:54:33;;;;;;;2.20;0.97;;;9.00;99.90;;;;;;5073916;28;20652;-71
2024/03/29 04:57:01;;;;;;;2.50;1.40;;;8.90;99.90;;;;;;5073873;28;20416;-71
2024/03/29 04:59:27;;;;;;;1.17;0.80;;;8.80;99.90;;;;;;5056159;28;20437;-70
2024/03/29 05:01:55;;;;;;;4.03;1.30;;;8.80;99.90;;;;;;5074088;28;20456;-71
2024/03/29 05:04:26;;;;;;;2.90;0.80;;;8.70;99.90;;;;;;5074075;28;20404;-71
2024/03/29 05:06:52;;;;;;;1.10;0.90;;;8.70;99.90;;;;;;5073651;28;20867;-71
2024/03/29 05:09:17;;;;;;;1.73;1.00;;;8.60;99.90;;;;;;5055038;28;20451;-71
2024/03/29 05:11:43;;;;;;;1.60;0.90;;;8.50;99.90;;;;;;5055732;28;20170;-71
2024/03/29 05:14:10;;;;;;;1.77;1.40;;;8.50;99.90;;;;;;5073839;28;20212;-70
2024/03/29 05:16:35;;;;;;;3.77;1.17;;;8.50;99.90;;;;;;5070930;28;20591;-71
2024/03/29 05:19:01;;;;;;;2.57;1.47;;;8.40;99.90;;;;;;5071820;28;20467;-71
2024/03/29 05:21:26;;;;;;;1.30;0.97;;;8.30;99.90;;;;;;5073690;28;20200;-71
2024/03/29 05:23:52;;;;;;;3.33;1.07;;;8.30;99.90;;;;;;5073681;28;20166;-71
2024/03/29 05:26:18;;;;;;;4.13;1.20;;;8.40;99.90;;;;;;5073656;28;20250;-71
2024/03/29 05:28:44;;;;;;;1.47;1.20;;;8.40;99.90;;;;;;5073555;28;20456;-71
2024/03/29 05:31:14;;;;;;;4.67;1.90;;;8.40;99.90;;;;;;5073621;28;20637;-71
2024/03/29 05:33:43;;;;;;;2.83;0.97;;;8.50;99.90;;;;;;5073686;28;20204;-71
2024/03/29 05:36:10;;;;;;;2.03;1.33;;;8.50;99.90;;;;;;5073561;28;21487;-71
2024/03/29 05:38:37;;;;;;;3.30;1.50;;;8.50;99.90;;;;;;5069126;28;20531;-71
2024/03/29 05:41:03;;;;;;;2.37;0.97;;;8.60;99.90;;;;;;5073236;28;20452;-71
2024/03/29 05:43:28;;;;;;;3.47;1.13;;;8.60;99.90;;;;;;5073188;28;20496;-71
2024/03/29 05:45:54;;;;;;;3.30;1.73;;;8.60;99.90;;;;;;5073433;28;20166;-71
2024/03/29 05:48:19;;;;;;;1.13;0.90;;;8.70;99.90;;;;;;5072949;28;20166;-71
2024/03/29 05:50:45;;;;;;;2.47;1.07;;;8.70;99.90;;;;;;5073243;28;20171;-71
2024/03/29 05:53:11;;;;;;;3.80;1.77;;;8.70;99.90;;;;;;5072859;28;20182;-72
2024/03/29 05:55:37;;;;;;;1.30;0.90;;;8.70;99.90;;;;;;5073167;28;20167;-71
2024/03/29 05:58:02;;;;;;;1.00;0.90;;;8.70;99.90;;;;;;5072816;28;20801;-72
2024/03/29 06:00:28;;;;;;;2.40;1.70;;;8.60;99.90;;;;;;5055144;28;20208;-71
2024/03/29 06:02:54;;;;;;;0.90;0.73;;;8.60;99.90;;;;;;5072805;28;20664;-71
2024/03/29 06:05:20;;;;;;;1.40;1.00;;;8.70;99.90;;;;;;5072835;28;20488;-71
2024/03/29 06:07:45;;;;;;;2.53;1.37;;;8.70;99.90;;;;;;5070371;28;20245;-71
2024/03/29 06:10:11;;;;;;;2.70;1.27;;;8.70;99.90;;;;;;5070032;28;20198;-71
2024/03/29 06:12:38;;;;;;;2.67;1.40;;;8.80;99.90;;;;;;5072641;28;20177;-71
2024/03/29 06:17:49;;;;;;;1.37;1.13;;;8.90;99.90;;;;;;5072467;28;20478;-71
2024/03/29 06:20:14;;;;;;;5.53;1.30;;;8.90;99.90;;;;;;5072379;28;20433;-71
2024/03/29 06:22:40;;;;;;;3.50;1.30;;;9.00;99.90;;;;;;5072635;28;20186;-71
2024/03/29 06:25:06;;;;;;;1.73;1.20;;;9.10;99.90;;;;;;5072522;28;20613;-71
2024/03/29 06:27:33;;;;;;;2.50;1.00;;;9.20;99.90;;;;;;5072208;28;20216;-71
2024/03/29 06:29:58;;;;;;;1.37;1.10;;;9.20;99.90;;;;;;5052740;28;20467;-71
2024/03/29 06:32:24;;;;;;;1.40;1.10;;;9.30;99.90;;;;;;5072124;28;20412;-71
2024/03/29 06:34:50;;;;;;;2.60;1.23;;;9.40;99.90;;;;;;5072312;28;20936;-71
2024/03/29 06:37:15;;;;;;;1.20;0.90;;;9.40;99.90;;;;;;5071351;28;20170;-72
2024/03/29 06:39:43;;;;;;;6.80;1.20;;;9.40;99.90;;;;;;5051369;28;20194;-71
2024/03/29 06:42:09;;;;;;;3.50;1.40;;;9.40;99.90;;;;;;5072066;28;20200;-71
2024/03/29 06:44:35;;;;;;;2.23;0.90;;;9.50;99.90;;;;;;5072231;28;20492;-71
2024/03/29 06:47:00;;;;;;;11.10;1.30;;;9.60;99.90;;;;;;5071890;28;20415;-71
2024/03/29 06:49:26;;;;;;;1.80;1.40;;;9.70;99.90;;;;;;5072057;28;20419;-71
2024/03/29 06:51:53;;;;;;;1.20;0.87;;;9.80;99.90;;;;;;5072075;28;20675;-72
2024/03/29 06:54:22;;;;;;;1.93;1.33;;;9.80;99.90;;;;;;5064627;28;20795;-71
2024/03/29 06:56:50;;;;;;;2.23;1.10;;;10.00;99.90;;;;;;5068053;28;20444;-71
2024/03/29 06:59:16;;;;;;;1.50;0.90;;;10.10;99.90;;;;;;5066658;28;20432;-71
2024/03/29 07:01:41;;;;;;;4.03;1.37;;;10.30;99.90;;;;;;5071662;28;20459;-72
2024/03/29 07:04:07;;;;;;;1.37;1.20;;;10.40;99.90;;;;;;5071027;28;20174;-71
2024/03/29 07:06:32;;;;;;;2.43;0.80;;;10.40;99.90;;;;;;5071583;28;20223;-71
2024/03/29 07:08:58;;;;;;;1.20;1.00;;;10.50;99.90;;;;;;5072004;28;20185;-71
2024/03/29 07:11:23;;;;;;;1.97;1.20;;;10.50;99.90;;;;;;5053894;28;20170;-71
2024/03/29 07:13:49;;;;;;;2.13;1.37;;;10.60;99.90;;;;;;5071819;28;20663;-71
2024/03/29 07:16:14;;;;;;;2.60;1.20;;;10.60;99.90;;;;;;5071989;28;20254;-71
2024/03/29 07:18:40;;;;;;;1.60;1.50;;;10.80;99.90;;;;;;5053538;28;20197;-72
2024/03/29 07:21:05;;;;;;;1.60;1.30;;;10.90;99.90;;;;;;5071715;28;20190;-71
2024/03/29 07:23:31;;;;;;;1.30;1.13;;;11.10;99.90;;;;;;5071995;28;20625;-72
2024/03/29 07:25:59;;;;;;;1.77;1.30;;;11.20;99.90;;;;;;5071599;28;20237;-72
2024/03/29 07:28:25;;;;;;;3.50;1.40;;;11.30;99.90;;;;;;5071331;28;20241;-71
2024/03/29 07:30:50;;;;;;;3.47;1.17;;;11.50;99.90;;;;;;5071638;28;20977;-71
2024/03/29 07:33:16;;;;;;;2.80;1.27;;;11.60;99.90;;;;;;5071574;28;20404;-71
2024/03/29 07:35:42;;;;;;;1.00;0.90;;;11.70;99.90;;;;;;5053380;28;20167;-71
2024/03/29 07:38:08;;;;;;;2.40;1.37;;;11.80;99.90;;;;;;5065330;28;20167;-71
2024/03/29 07:40:34;;;;;;;3.87;2.00;;;11.80;99.90;;;;;;5068302;28;20428;-71
2024/03/29 07:43:00;;;;;;;1.77;1.10;;;12.00;99.90;;;;;;5071254;28;20201;-71
2024/03/29 07:45:26;;;;;;;1.63;0.80;;;11.90;99.90;;;;;;5061722;28;20436;-72
2024/03/29 07:47:52;;;;;;;1.70;0.90;;;12.00;99.90;;;;;;5071350;28;20455;-71
2024/03/29 07:50:18;;;;;;;3.23;1.00;;;12.00;99.90;;;;;;5071435;28;20550;-71
2024/03/29 07:52:47;;;;;;;1.10;0.90;;;12.00;99.90;;;;;;5051545;28;20436;-70
2024/03/29 07:55:13;;;;;;;0.80;0.60;;;12.20;99.90;;;;;;5057175;28;20429;-71
2024/03/29 07:57:39;;;;;;;1.00;0.70;;;12.30;99.90;;;;;;5058232;28;20424;-70
2024/03/29 08:00:05;;;;;;;0.90;0.60;;;12.40;99.90;;;;;;5059487;28;20441;-70
2024/03/29 08:02:32;;;;;;;1.50;0.80;;;12.40;99.90;;;;;;5062069;28;20205;-70
2024/03/29 08:04:58;;;;;;;1.90;0.70;;;12.40;99.90;;;;;;5071189;28;20447;-70
2024/03/29 08:07:24;;;;;;;1.30;1.20;;;12.40;99.90;;;;;;5071023;28;20405;-71
2024/03/29 08:09:50;;;;;;;1.10;0.90;;;12.60;99.90;;;;;;5071147;28;20478;-70
2024/03/29 08:12:16;;;;;;;1.73;1.20;;;12.60;99.90;;;;;;5071081;28;20205;-69
2024/03/29 08:14:42;;;;;;;1.67;0.80;;;12.60;99.90;;;;;;5065862;28;20472;-70
2024/03/29 08:17:09;;;;;;;1.33;1.00;;;12.70;99.90;;;;;;5060482;28;20258;-69
2024/03/29 08:19:35;;;;;;;1.57;0.83;;;12.70;99.90;;;;;;5068174;28;20212;-70
2024/03/29 08:22:01;;;;;;;3.50;1.00;;;12.60;99.90;;;;;;5074726;28;20822;-70
2024/03/29 08:24:27;;;;;;;1.83;0.90;;;12.60;99.90;;;;;;5074749;28;20411;-71
2024/03/29 08:26:53;;;;;;;0.80;0.63;;;12.70;99.90;;;;;;5072955;28;20570;-70
2024/03/29 08:29:18;;;;;;;1.10;0.80;;;12.80;99.90;;;;;;5072329;28;20489;-71
2024/03/29 08:31:44;;;;;;;4.90;1.00;;;12.90;99.90;;;;;;5070307;28;20170;-70
2024/03/29 08:34:13;;;;;;;0.90;0.70;;;13.00;99.90;;;;;;5071687;28;20244;-69
2024/03/29 08:36:38;;;;;;;0.80;0.70;;;13.30;99.90;;;;;;5069906;28;20591;-71
2024/03/29 08:39:04;;;;;;;1.00;0.70;;;13.60;99.90;;;;;;5074526;28;20432;-70
2024/03/29 08:41:29;;;;;;;3.90;1.10;;;13.90;99.90;;;;;;5070261;28;20206;-70
2024/03/29 08:43:55;;;;;;;1.00;0.80;;;14.10;99.90;;;;;;5074340;28;20668;-70
2024/03/29 08:46:20;;;;;;;0.93;0.67;;;14.40;99.90;;;;;;5074593;28;20182;-71
2024/03/29 08:48:46;;;;;;;1.80;0.80;;;14.60;99.90;;;;;;5071765;28;20190;-70
2024/03/29 08:51:12;;;;;;;1.10;0.80;;;14.70;99.90;;;;;;5070767;28;20178;-70
2024/03/29 08:53:37;;;;;;;2.53;1.30;;;15.00;99.90;;;;;;5074233;28;20178;-70
2024/03/29 08:56:03;;;;;;;1.30;0.90;;;15.10;99.90;;;;;;5065839;28;20279;-70
2024/03/29 08:58:28;;;;;;;2.10;1.90;;;15.60;99.90;;;;;;5069900;28;20186;-70
2024/03/29 09:00:55;;;;;;;3.63;2.07;;;16.00;99.90;;;;;;5055947;28;20172;-69
2024/03/29 09:03:24;;;;;;;2.07;1.23;;;16.20;99.90;;;;;;5074261;28;20174;-69
2024/03/29 09:05:51;;;;;;;1.00;0.80;;;16.40;99.90;;;;;;5074356;28;20408;-70
2024/03/29 09:08:20;;;;;;;1.77;1.67;;;16.90;99.90;;;;;;5073713;28;20823;-69
2024/03/29 09:10:46;;;;;;;1.00;0.80;;;16.90;99.90;;;;;;5074152;28;20397;-70
2024/03/29 09:13:11;;;;;;;3.53;0.80;;;17.10;99.90;;;;;;5056152;28;20409;-70
2024/03/29 09:15:38;;;;;;;1.37;0.70;;;17.20;99.90;;;;;;5073921;28;20412;-70
2024/03/29 09:18:10;;;;;;;1.57;1.00;;;17.40;99.90;;;;;;5073686;28;20192;-70
2024/03/29 09:20:39;;;;;;;1.30;0.80;;;17.20;99.90;;;;;;5073923;28;20412;-68
2024/03/29 09:23:04;;;;;;;1.20;0.90;;;16.80;99.90;;;;;;5073765;28;20451;-68
2024/03/29 09:25:32;;;;;;;1.00;0.70;;;16.90;99.90;;;;;;5073928;28;20401;-68
2024/03/29 09:27:57;;;;;;;2.40;1.30;;;16.70;99.90;;;;;;5072863;28;20542;-71
2024/03/29 09:30:23;;;;;;;1.10;1.00;;;16.90;99.90;;;;;;5073586;28;20507;-70
2024/03/29 09:32:50;;;;;;;0.80;0.60;;;17.60;99.90;;;;;;5073526;28;20641;-70
2024/03/29 09:35:17;;;;;;;1.00;0.90;;;18.10;99.90;;;;;;5073580;28;20609;-70
2024/03/29 09:37:43;;;;;;;1.20;0.90;;;18.70;99.90;;;;;;5073206;28;20454;-70
2024/03/29 09:40:10;;;;;;;1.13;0.93;;;18.50;99.90;;;;;;5073559;28;20424;-70
2024/03/29 09:42:39;;;;;;;4.03;1.10;;;18.40;99.90;;;;;;5073269;28;20233;-70
2024/03/29 09:45:05;;;;;;;1.10;0.60;;;17.90;99.90;;;;;;5055354;28;20492;-70
2024/03/29 09:47:32;;;;;;;1.00;0.83;;;17.60;99.90;;;;;;5072986;28;20392;-70
2024/03/29 09:50:03;;;;;;;1.00;0.87;;;18.00;99.90;;;;;;5073184;28;20412;-71
2024/03/29 09:52:29;;;;;;;1.27;0.83;;;18.20;99.90;;;;;;5073050;28;20428;-70
2024/03/29 09:54:56;;;;;;;0.90;0.70;;;18.50;99.90;;;;;;5073081;28;20415;-69
2024/03/29 09:57:24;;;;;;;1.10;0.70;;;18.60;99.90;;;;;;5072846;28;20455;-69
2024/03/29 09:59:49;;;;;;;0.90;0.60;;;18.40;99.90;;;;;;5073095;28;20942;-69
2024/03/29 10:02:17;;;;;;;1.37;0.80;;;18.30;99.90;;;;;;5072896;28;20444;-71
2024/03/29 10:04:45;;;;;;;1.27;0.77;;;18.10;99.90;;;;;;5072879;28;20404;-70
2024/03/29 10:07:12;;;;;;;0.93;0.70;;;17.70;99.90;;;;;;5072522;28;20531;-70
2024/03/29 10:09:38;;;;;;;0.90;0.70;;;17.80;99.90;;;;;;5072804;28;20408;-71
2024/03/29 10:12:04;;;;;;;1.33;0.90;;;17.70;99.90;;;;;;5072758;28;20428;-71
2024/03/29 10:14:43;;;;;;;0.90;0.70;;;17.70;99.90;;;;;;5072737;28;20498;-71
2024/03/29 10:17:08;;;;;;;1.20;0.70;;;17.80;99.90;;;;;;5072727;28;20725;-70
2024/03/29 10:19:34;;;;;;;0.90;0.60;;;17.80;99.90;;;;;;5072570;28;20424;-71
2024/03/29 10:22:08;;;;;;;0.80;0.60;;;17.60;99.90;;;;;;5054658;28;20286;-71
2024/03/29 10:24:34;;;;;;;0.93;0.73;;;17.70;99.90;;;;;;5072610;28;20256;-72
2024/03/29 10:26:59;;;;;;;2.40;1.07;;;17.70;99.90;;;;;;5072239;28;21193;-71
2024/03/29 10:29:31;;;;;;;1.20;0.80;;;17.60;99.90;;;;;;5072958;28;20185;-71
2024/03/29 10:31:57;;;;;;;1.10;0.80;;;17.60;99.90;;;;;;5072714;28;20245;-70
2024/03/29 10:34:24;;;;;;;0.97;0.80;;;17.50;99.90;;;;;;5072404;28;20411;-70
2024/03/29 10:36:50;;;;;;;3.27;0.80;;;17.70;99.90;;;;;;5066757;28;20677;-71
2024/03/29 10:39:16;;;;;;;1.43;0.80;;;17.60;99.90;;;;;;5043226;28;20514;-71
2024/03/29 10:41:46;;;;;;;1.40;0.80;;;17.70;99.90;;;;;;5072101;28;20448;-71
2024/03/29 10:44:12;;;;;;;1.60;0.87;;;17.80;99.90;;;;;;5050051;28;20811;-71
2024/03/29 10:46:39;;;;;;;0.83;0.60;;;17.60;99.90;;;;;;5064077;28;20409;-69
2024/03/29 10:49:09;;;;;;;0.90;0.70;;;17.60;99.90;;;;;;5071914;28;20425;-71
2024/03/29 10:51:38;;;;;;;1.30;0.70;;;17.70;99.90;;;;;;5052928;28;20429;-67
2024/03/29 10:54:05;;;;;;;1.13;0.70;;;17.80;99.90;;;;;;5047087;28;20429;-68
2024/03/29 10:56:34;;;;;;;0.80;0.70;;;17.70;99.90;;;;;;5046617;28;20490;-67
2024/03/29 10:59:20;;;;;;;0.87;0.70;;;17.70;99.90;;;;;;5064853;28;20436;-72
2024/03/29 11:01:52;;;;;;;0.90;0.70;;;17.70;98.60;;;;;;5065448;28;20857;-70
2024/03/29 11:04:25;;;;;;;0.90;0.70;;;17.70;98.20;;;;;;5059728;28;20441;-71
2024/03/29 11:06:57;;;;;;;1.07;0.70;;;17.90;98.70;;;;;;5058516;28;20848;-70
2024/03/29 11:09:29;;;;;;;1.00;0.60;;;18.00;97.10;;;;;;5059920;28;20413;-72
2024/03/29 11:11:56;;;;;;;2.20;0.80;;;18.30;96.40;;;;;;5065153;28;20518;-72
2024/03/29 11:14:34;;;;;;;0.80;0.60;;;18.60;96.50;;;;;;5057379;28;20429;-72
2024/03/29 11:17:00;;;;;;;1.83;0.80;;;18.90;94.90;;;;;;5059806;28;20423;-71
2024/03/29 11:19:26;;;;;;;0.90;0.60;;;18.90;92.40;;;;;;5070877;28;20427;-70
2024/03/29 11:21:53;;;;;;;0.83;0.70;;;18.50;90.70;;;;;;5067215;28;20638;-70
2024/03/29 11:24:19;;;;;;;1.37;0.97;;;18.10;90.70;;;;;;5061888;28;20462;-71
2024/03/29 11:26:45;;;;;;;1.13;0.90;;;18.00;92.00;;;;;;5061210;28;20416;-70
2024/03/29 11:29:22;;;;;;;3.23;1.80;;;17.60;92.20;;;;;;5038668;28;20495;-71
2024/03/29 11:31:49;;;;;;;1.00;0.90;;;17.70;93.20;;;;;;5059521;28;20834;-71
2024/03/29 11:34:19;;;;;;;0.87;0.63;;;17.70;92.90;;;;;;5069118;28;20409;-69
2024/03/29 11:36:45;;;;;;;1.00;0.77;;;17.50;92.60;;;;;;5061635;28;20461;-70
2024/03/29 11:39:23;;;;;;;0.83;0.67;;;17.60;92.70;;;;;;5071092;28;20424;-70
2024/03/29 11:41:49;;;;;;;1.20;0.80;;;17.60;92.30;;;;;;5071556;28;20467;-70
2024/03/29 11:44:16;;;;;;;0.80;0.63;;;17.40;92.50;;;;;;5071506;28;20424;-70
2024/03/29 11:46:43;;;;;;;1.07;0.80;;;17.40;92.90;;;;;;5071233;28;20404;-69
2024/03/29 11:49:09;;;;;;;0.90;0.70;;;17.30;91.60;;;;;;5071275;28;21009;-70
2024/03/29 11:51:34;;;;;;;0.80;0.63;;;17.50;92.90;;;;;;5056300;28;20428;-70
2024/03/29 11:54:00;;;;;;;0.83;0.67;;;17.60;92.40;;;;;;5055567;28;20174;-69
2024/03/29 11:56:26;;;;;;;0.90;0.70;;;17.80;93.00;;;;;;5060223;28;20229;-69
2024/03/29 11:58:53;;;;;;;0.90;0.70;;;18.10;92.10;;;;;;5074970;28;20420;-70
2024/03/29 12:01:18;;;;;;;2.80;0.80;;;18.10;90.50;;;;;;5074472;28;20669;-70
2024/03/29 12:03:44;;;;;;;1.73;0.77;;;18.10;90.30;;;;;;5062626;28;20479;-70
2024/03/29 12:06:10;;;;;;;0.90;0.80;;;18.10;89.40;;;;;;5066968;28;20174;-70
2024/03/29 12:08:38;;;;;;;1.00;0.80;;;17.70;86.90;;;;;;5074983;28;20232;-70
2024/03/29 12:11:04;;;;;;;0.90;0.70;;;17.40;87.50;;;;;;5075133;28;20753;-69
2024/03/29 12:13:31;;;;;;;1.13;1.03;;;17.20;89.10;;;;;;5075501;28;20404;-69
2024/03/29 12:15:57;;;;;;;1.17;0.70;;;17.00;89.50;;;;;;5075097;28;20396;-70
2024/03/29 12:18:25;;;;;;;1.20;0.80;;;16.80;90.50;;;;;;5074558;28;20467;-71
2024/03/29 12:20:52;;;;;;;1.20;0.77;;;16.80;90.50;;;;;;5075010;28;20401;-69
2024/03/29 12:23:20;;;;;;;0.80;0.67;;;16.80;91.70;;;;;;5074920;28;20397;-71
2024/03/29 12:25:46;;;;;;;1.77;0.70;;;16.80;90.50;;;;;;5074870;28;20461;-70
2024/03/29 12:28:14;;;;;;;1.30;1.20;;;17.10;89.60;;;;;;5074519;28;20393;-71
2024/03/29 12:30:44;;;;;;;2.90;1.77;;;17.60;90.30;;;;;;5074969;28;20397;-70
2024/03/29 12:33:15;;;;;;;1.10;0.70;;;17.70;84.50;;;;;;5068920;28;20433;-69
2024/03/29 12:35:43;;;;;;;0.80;0.60;;;17.70;85.60;;;;;;5048272;28;20424;-71
2024/03/29 12:38:14;;;;;;;5.63;2.93;;;17.60;85.70;;;;;;5063379;28;20435;-70
2024/03/29 12:40:43;;;;;;;11.97;6.60;;;17.60;88.00;;;;;;5068715;28;20412;-70
2024/03/29 12:43:09;;;;;;;2.33;2.13;;;17.70;89.60;;;;;;5062877;28;21174;-70
2024/03/29 12:45:36;;;;;;;1.20;1.10;;;17.60;89.20;;;;;;5073078;28;20488;-70
2024/03/29 12:48:02;;;;;;;0.80;0.60;;;17.50;88.60;;;;;;5069538;28;20462;-70
2024/03/29 12:50:34;;;;;;;0.90;0.77;;;17.20;90.10;;;;;;5074217;28;20494;-70
2024/03/29 12:53:01;;;;;;;1.37;0.60;;;17.00;91.40;;;;;;5074220;28;20481;-70
2024/03/29 12:55:30;;;;;;;0.80;0.60;;;17.00;92.40;;;;;;5073384;28;20446;-71